Detroit, Michigan
Traffic Map
Current Weather Conditions
Detroit, Michigan
Overcast
Overcast
43°
Feels Like: 35°
Wind Chill: 35° Ceiling: 3700
Heat Index: 43° Visibility: 15mi
Dew Point: 34° Wind: 17mph
Humidity: 70% Direction: 40° (NE)
Pressure: 30.22in Gusts: 0mph
Raw Report DataCYQG 300100Z 04015KT 15SM BKN037 OVC050 06/01 A3022 RMK SC7SC1 SLP239
Traffic Incident Summary
Active as of:
Severity:
Category:
InformationThere was an issue retrieving the traffic information for this location. Please try a different location or try again shortly.
Advertisements
Track Severe Weather on mobile